Thunder radar more information blitzortung!


Radar de pluja more information rain snow radar


Visita la nostra xarxa de llocs de meteo:

Template documentation
and downloads

And another site



No particular awareness of the weather is required.    There are no Weather-warnings

Pagina Historial Weather Underground text

Diari Resum Novembre 3, 2017 Unitats:  Imperial    Mètric   Tant
« Previous Dia
SegĂźent Dia »
Diari Setmana Mensual Anual Personalitzada
  Maxima: Minima: Media:
Temperatura: 71.4 °F 53.1 °F 63.3 °F
Punt de rosada: 59.7 °F 50.5 °F 55.8 °F
Humitat: 92 % 63 % 77 %
Wind Speed: 8.1 mph 0 mph 2.7 mph
RĂ fegues de vent: 8.1 mph - -
Vent:- - South
Pression baro: 30.1 in 29.9 in -
Precipitacions: 0 in    
Historical Graphs
 
 
Dades de taula per Novembre 3, 2017
Temps Temperatura Punt de rosada Pression baro Vent Wind Speed RĂ fegues de vent Humitat Rainfall Rate (Hourly)
00:01 56.8 °F 51.6 °F 30.1 in Calm     83 % 0 in
00:06 56.8 °F 51.6 °F 30.1 in ENE 1.2 mph 1.2 mph 83 % 0 in
02:50 53.1 °F 50.5 °F 30 in SW 1 mph   91 % 0 in
03:00 53.1 °F 50.5 °F 30 in Calm   2 mph 91 % 0 in
03:10 53.4 °F 50.9 °F 30.1 in SSW 1 mph 1 mph 91 % 0 in
03:20 53.8 °F 51.3 °F 30.1 in Calm   1 mph 91 % 0 in
03:30 54.3 °F 52 °F 30 in Calm   1 mph 92 % 0 in
03:40 54.9 °F 52.3 °F 30 in WSW 2 mph 2 mph 91 % 0 in
03:50 55.4 °F 52.9 °F 30 in Calm   3 mph 91 % 0 in
04:00 56.1 °F 53.2 °F 30 in North 2 mph 4 mph 90 % 0 in
04:10 56.7 °F 53.4 °F 30 in North 2 mph 3 mph 89 % 0 in
04:20 56.7 °F 53.4 °F 30 in Calm   2 mph 89 % 0 in
04:30 57.2 °F 53.8 °F 30 in NNE 2 mph 2 mph 88 % 0 in
04:40 58.3 °F 54.3 °F 30 in NE 1 mph 2 mph 87 % 0 in
04:50 59.4 °F 55.2 °F 30 in NE 1 mph 2 mph 86 % 0 in
10:56 59.7 °F 54.9 °F 30 in ENE 1.2 mph 1.2 mph 84 % 0 in
10:57 59.7 °F 54.9 °F 30 in ENE 1.2 mph 1.2 mph 84 % 0 in
11:02 60.3 °F 55.4 °F 30 in NNE 2.6 mph 2.6 mph 84 % 0 in
11:07 60.4 °F 55.6 °F 30 in NNE 3.5 mph 3.5 mph 84 % 0 in
11:12 60.8 °F 55.6 °F 30 in NNE 2.3 mph 2.3 mph 83 % 0 in
11:17 61.3 °F 56.1 °F 30 in ENE 3.1 mph 3.1 mph 83 % 0 in
11:22 61.5 °F 55.9 °F 30 in NE 4.6 mph 4.6 mph 82 % 0 in
11:27 61.9 °F 56.3 °F 30 in ENE 2.3 mph 2.4 mph 82 % 0 in
11:32 62.1 °F 56.5 °F 30 in North 2.3 mph 2.3 mph 82 % 0 in
11:37 62.6 °F 56.3 °F 30 in ENE 3.5 mph 3.5 mph 80 % 0 in
11:42 63 °F 56.7 °F 30 in ENE 2.3 mph 2.3 mph 80 % 0 in
11:47 62.8 °F 56.1 °F 30 in ENE 3.5 mph 3.5 mph 79 % 0 in
11:52 62.8 °F 56.1 °F 30 in NE 4.6 mph 4.6 mph 79 % 0 in
11:57 63.3 °F 56.3 °F 30 in NE 4.3 mph 4.3 mph 78 % 0 in
12:02 63.1 °F 56.1 °F 30 in NNE 4.6 mph 4.6 mph 78 % 0 in
12:07 63.5 °F 56.5 °F 30 in NNE 3.6 mph 3.6 mph 78 % 0 in
12:12 63.7 °F 56.3 °F 30 in NW 2.3 mph   77 % 0 in
12:17 64.4 °F 57 °F 30 in ENE 3.6 mph 3.6 mph 77 % 0 in
12:22 64.4 °F 56.7 °F 30 in ESE 3.8 mph 3.8 mph 76 % 0 in
12:27 64.9 °F 57.6 °F 30 in ENE 3.5 mph 3.5 mph 77 % 0 in
12:32 65.7 °F 58.3 °F 30 in ENE 3.1 mph 3.1 mph 77 % 0 in
12:37 65.8 °F 58.1 °F 30 in NW 2.3 mph 2.3 mph 76 % 0 in
12:42 65.8 °F 57.4 °F 30 in ENE 4.6 mph 4.6 mph 74 % 0 in
12:47 66.6 °F 57.9 °F 30 in ESE 2.3 mph 2.3 mph 74 % 0 in
12:52 66.6 °F 57.6 °F 30 in SE 3.5 mph 3.5 mph 73 % 0 in
12:57 66.9 °F 57.9 °F 30 in ESE 2.9 mph 2.9 mph 73 % 0 in
13:02 66.9 °F 57.9 °F 30 in NE 2.3 mph 2.3 mph 73 % 0 in
13:07 67.6 °F 59.4 °F 30 in SW 2.3 mph 2.3 mph 75 % 0 in
13:12 68.9 °F 59.5 °F 30 in West 3.5 mph 3.5 mph 72 % 0 in
13:17 68.9 °F 59.5 °F 30 in SSE 4.6 mph 4.6 mph 72 % 0 in
13:22 69.1 °F 59.4 °F 30 in SSW 3.5 mph 3.5 mph 71 % 0 in
13:27 69.4 °F 59.5 °F 30 in NW 2.3 mph 2.3 mph 71 % 0 in
13:32 69.6 °F 59.7 °F 30 in WSW 3.5 mph 3.5 mph 71 % 0 in
13:37 69.4 °F 58.5 °F 30 in SW 3.5 mph 3.5 mph 68 % 0 in
13:42 69.1 °F 58.5 °F 30 in WSW 2.3 mph 2.3 mph 69 % 0 in
13:47 68.5 °F 57.6 °F 30 in ENE 2.3 mph 2.3 mph 68 % 0 in
13:52 68.4 °F 57.7 °F 30 in East 1.2 mph 1.2 mph 69 % 0 in
13:57 68.4 °F 57.7 °F 30 in NNE 2.3 mph 2.4 mph 69 % 0 in
14:02 69.1 °F 58.5 °F 30 in SW 3.5 mph 3.5 mph 69 % 0 in
14:07 70.2 °F 59.2 °F 30 in WSW 4 mph 4 mph 68 % 0 in
14:12 70.3 °F 58.8 °F 30 in SW 5.8 mph 5.8 mph 67 % 0 in
14:17 69.8 °F 58.3 °F 30 in SW 5.8 mph 5.8 mph 67 % 0 in
14:22 69.4 °F 57.9 °F 29.9 in WSW 4.6 mph 4.6 mph 67 % 0 in
14:23 69.3 °F 57.7 °F 29.9 in SW 4.6 mph 4.6 mph 67 % 0 in
14:28 69.3 °F 57.7 °F 29.9 in WSW 1.6 mph 1.6 mph 67 % 0 in
14:33 70.5 °F 58.6 °F 29.9 in WSW 5.8 mph 5.8 mph 66 % 0 in
14:38 69.8 °F 57.9 °F 29.9 in SW 5.9 mph 5.9 mph 66 % 0 in
14:43 70.3 °F 57.9 °F 29.9 in WSW 4.6 mph 4.6 mph 65 % 0 in
14:48 70.7 °F 57.9 °F 29.9 in SSW 8.1 mph 8.1 mph 64 % 0 in
14:53 70.5 °F 57.7 °F 29.9 in WSW 5.8 mph 5.8 mph 64 % 0 in
14:58 70.5 °F 58.6 °F 29.9 in WSW 5.4 mph 5.4 mph 66 % 0 in
15:03 70.3 °F 57.9 °F 29.9 in SSW 4.6 mph 4.6 mph 65 % 0 in
15:08 70.9 °F 58.5 °F 29.9 in WSW 6.9 mph 6.9 mph 65 % 0 in
15:13 70.9 °F 58.5 °F 29.9 in SSW 3.5 mph 3.5 mph 65 % 0 in
15:18 71.4 °F 59 °F 29.9 in SSW 5.6 mph 5.6 mph 65 % 0 in
15:23 71.1 °F 58.3 °F 29.9 in SSW 6.9 mph 6.9 mph 64 % 0 in
15:28 70.7 °F 57.9 °F 29.9 in SW 6.2 mph 6.2 mph 64 % 0 in
15:33 70.7 °F 57.9 °F 29.9 in SW 3.5 mph 3.5 mph 64 % 0 in
15:38 70.9 °F 58.1 °F 29.9 in WSW 6 mph 6 mph 64 % 0 in
15:43 71.2 °F 58.5 °F 29.9 in SW 5.8 mph 5.8 mph 64 % 0 in
15:48 71.4 °F 58.3 °F 29.9 in SW 5.8 mph 5.8 mph 63 % 0 in
15:53 71.1 °F 57.7 °F 29.9 in SSW 6.9 mph 6.9 mph 63 % 0 in
15:58 70.3 °F 57 °F 29.9 in West 8.1 mph 8.1 mph 63 % 0 in
16:03 70.2 °F 57.4 °F 29.9 in SW 5.8 mph 5.8 mph 64 % 0 in
16:08 70.5 °F 57.7 °F 29.9 in SW 4.6 mph 4.6 mph 64 % 0 in
16:13 70.7 °F 57.9 °F 29.9 in South 4.6 mph 4.6 mph 64 % 0 in
16:18 70.3 °F 57.6 °F 29.9 in WSW 5.8 mph 5.8 mph 64 % 0 in
16:23 70.3 °F 57.9 °F 29.9 in SSE 5.8 mph 5.8 mph 65 % 0 in
16:28 69.8 °F 57 °F 29.9 in SW 5.8 mph 5.8 mph 64 % 0 in
16:33 69.6 °F 57.4 °F 29.9 in West 4.6 mph 4.6 mph 65 % 0 in
16:38 69.4 °F 57.2 °F 29.9 in SW 3.5 mph 3.5 mph 65 % 0 in
16:43 69.3 °F 57.4 °F 29.9 in WSW 3.5 mph 3.5 mph 66 % 0 in
16:48 68.4 °F 56.7 °F 29.9 in South 6.9 mph 6.9 mph 66 % 0 in
16:54 67.6 °F 56.3 °F 29.9 in SW 3.5 mph 4.7 mph 67 % 0 in
16:59 67.3 °F 55.9 °F 29.9 in WSW 4.9 mph 5.4 mph 67 % 0 in
17:04 66.7 °F 55.8 °F 29.9 in West 5.8 mph 5.8 mph 68 % 0 in
17:09 66.4 °F 55.9 °F 29.9 in SSW 4.6 mph 4.6 mph 69 % 0 in
17:14 66.2 °F 55.8 °F 29.9 in South 3.5 mph 3.5 mph 69 % 0 in
17:19 65.8 °F 56.1 °F 29.9 in SSW 5.6 mph 5.6 mph 71 % 0 in
17:24 65.5 °F 55.8 °F 29.9 in WSW 5.8 mph 5.8 mph 71 % 0 in
17:29 65.3 °F 55.8 °F 29.9 in SW 7.6 mph 7.6 mph 71 % 0 in
17:34 64.9 °F 55.8 °F 29.9 in WSW 6.9 mph 6.9 mph 72 % 0 in
17:39 64.8 °F 55.6 °F 29.9 in SSW 4 mph 4 mph 72 % 0 in
17:44 64.6 °F 55.2 °F 29.9 in SW 5.8 mph 5.8 mph 72 % 0 in
17:49 64.4 °F 55.6 °F 29.9 in WSW 6.9 mph 6.9 mph 73 % 0 in
17:54 64.2 °F 55.4 °F 29.9 in SW 4.6 mph 4.6 mph 73 % 0 in
17:59 63.9 °F 55.4 °F 29.9 in WSW 4.6 mph 4.6 mph 74 % 0 in
18:04 63.7 °F 55.2 °F 29.9 in SSW 3.8 mph 4 mph 74 % 0 in
18:09 63.5 °F 55 °F 29.9 in South 5.8 mph 5.8 mph 74 % 0 in
18:14 63.3 °F 55.2 °F 29.9 in WSW 5.8 mph 5.8 mph 75 % 0 in
18:19 63.1 °F 55 °F 29.9 in South 6.4 mph 6.4 mph 75 % 0 in
18:24 63 °F 55.2 °F 29.9 in SW 4.6 mph 4.6 mph 76 % 0 in
18:29 62.8 °F 55 °F 29.9 in South 4.6 mph 4.6 mph 76 % 0 in
18:34 62.6 °F 54.9 °F 29.9 in SW 3.5 mph 3.5 mph 76 % 0 in
18:39 62.4 °F 55 °F 29.9 in SW 3.5 mph 3.5 mph 77 % 0 in
18:44 62.2 °F 55.2 °F 29.9 in West 3.5 mph 3.5 mph 78 % 0 in
18:49 62.2 °F 55.2 °F 29.9 in SW 2.3 mph   78 % 0 in
18:54 62.1 °F 55 °F 29.9 in SW 3.5 mph 3.5 mph 78 % 0 in
18:59 61.9 °F 54.9 °F 29.9 in WSW 2.3 mph 2.3 mph 78 % 0 in
19:05 61.7 °F 55 °F 29.9 in SW 2.3 mph 2.3 mph 79 % 0 in
19:10 61.7 °F 55 °F 29.9 in SW 2.3 mph 2.3 mph 79 % 0 in
19:15 61.5 °F 54.9 °F 29.9 in WSW 2.3 mph 2.3 mph 79 % 0 in
19:20 61.3 °F 54.9 °F 29.9 in SW 2.3 mph 2.3 mph 79 % 0 in
19:25 61.3 °F 54.9 °F 30 in SW 2.3 mph 2.3 mph 79 % 0 in
19:30 61.2 °F 54.9 °F 30 in SW 3.5 mph 3.5 mph 80 % 0 in
19:35 61.2 °F 54.9 °F 30 in West 2.3 mph 2.3 mph 80 % 0 in
19:40 61.2 °F 54.9 °F 29.9 in SW 1 mph 3 mph 80 % 0 in
19:45 61 °F 54.9 °F 29.9 in West 2.3 mph 2.3 mph 80 % 0 in
19:50 61 °F 55 °F 29.9 in SW 2 mph 2 mph 81 % 0 in
19:55 61 °F 55 °F 29.9 in WSW 1.2 mph   81 % 0 in
20:00 61 °F 55 °F 29.9 in Calm   2 mph 81 % 0 in
20:05 60.8 °F 54.9 °F 29.9 in Calm   1 mph 81 % 0 in
20:10 60.8 °F 55.2 °F 30 in Calm     82 % 0 in
20:15 60.6 °F 55 °F 30 in Calm     82 % 0 in
20:20 60.6 °F 55 °F 30 in NNW 1.6 mph 1.6 mph 82 % 0 in
20:25 60.6 °F 55 °F 30 in Calm   2 mph 82 % 0 in
20:30 60.6 °F 55 °F 30 in Calm     82 % 0 in
20:35 60.4 °F 54.9 °F 30 in Calm     82 % 0 in
20:40 60.4 °F 54.9 °F 30 in NW 0.9 mph   82 % 0 in
20:45 60.4 °F 55.2 °F 30 in Calm     83 % 0 in
20:50 60.3 °F 55 °F 30 in Calm     83 % 0 in
20:55 59.9 °F 54.7 °F 30 in NW 1.2 mph   83 % 0 in
21:00 59.7 °F 54.5 °F 30 in Calm     83 % 0 in
21:05 59.7 °F 54.5 °F 30 in Calm     83 % 0 in
21:10 59.7 °F 54.5 °F 30 in Calm     83 % 0 in
21:15 59.5 °F 54.3 °F 30 in Calm     83 % 0 in
21:20 59.5 °F 54.7 °F 30 in Calm     84 % 0 in
21:25 59.5 °F 54.7 °F 30 in Calm   1 mph 84 % 0 in
21:30 59.5 °F 54.3 °F 30 in WNW 1 mph 2 mph 83 % 0 in
21:35 59.5 °F 54.3 °F 30 in Calm     83 % 0 in
21:40 59.5 °F 54.7 °F 30 in Calm     84 % 0 in
21:45 59.5 °F 54.7 °F 30 in Calm     84 % 0 in
21:50 59.5 °F 54.7 °F 30 in Calm     84 % 0 in
21:55 59.5 °F 54.7 °F 30 in WNW 1.2 mph 1.2 mph 84 % 0 in
22:00 59.5 °F 54.7 °F 30 in West 2.3 mph 2.3 mph 84 % 0 in
22:05 59.5 °F 54.7 °F 30 in Calm   1 mph 84 % 0 in
22:10 59.4 °F 54.5 °F 30 in Calm     84 % 0 in
22:15 59.2 °F 54.3 °F 30 in Calm     84 % 0 in
22:20 59.4 °F 54.5 °F 30 in Calm     84 % 0 in
22:25 59.4 °F 54.5 °F 30 in Calm     84 % 0 in
22:30 59.4 °F 54.5 °F 30 in Calm     84 % 0 in
22:35 59.4 °F 54.5 °F 30 in Calm     84 % 0 in
22:40 59.2 °F 54.3 °F 30 in Calm     84 % 0 in
22:45 59 °F 54.1 °F 30 in Calm     84 % 0 in
22:50 58.5 °F 53.6 °F 30 in North 1 mph 2 mph 84 % 0 in
22:55 58.3 °F 53.4 °F 29.9 in Calm   1 mph 84 % 0 in
23:00 58.1 °F 53.6 °F 29.9 in Calm     85 % 0 in
23:05 57.9 °F 53.4 °F 29.9 in Calm     85 % 0 in
23:10 57.7 °F 53.2 °F 30 in Calm     85 % 0 in
23:15 57.6 °F 53.1 °F 30 in Calm     85 % 0 in
23:20 57.6 °F 53.1 °F 30 in Calm     85 % 0 in
23:25 57.7 °F 53.2 °F 30 in Calm     85 % 0 in
23:30 57.7 °F 53.6 °F 30 in Calm     86 % 0 in
23:35 57.6 °F 53.2 °F 30 in Calm     86 % 0 in
23:40 57.4 °F 53.2 °F 30 in Calm     86 % 0 in
23:45 57.4 °F 53.2 °F 30 in Calm     86 % 0 in
23:50 57.2 °F 53.1 °F 30 in NNE 1.2 mph 1.4 mph 86 % 0 in
23:55 57.2 °F 53.4 °F 30 in NNE 1.4 mph 1.4 mph 87 % 0 in
Meteo Sesrovires
Elogis d' Weather Underground - 3.5 mb

Guio original per  Jim McMurry - jmcmurry@mwt.net Adaptat per a la plantilla per  Wim van der Kuil - Leuven-Template.eu

Trobareu la nostra informacio del temps tambe a:

Weather Underground

AWEKAS